Time;durP1;ratioP1;P1;durP2;ratioP2;P2;SDS_P1;SDS_P2;PMS_P1;PMS_P2;Temp;Humidity;BMP_temperature;BMP_pressure;BME280_temperature;BME280_humidity;BME280_pressure;Samples;Min_cycle;Max_cycle;Signal;HPM_P1;HPM_P2
2024/01/22 00:00:13;;;;;;;4.35;1.80;;;0.10;57.40;;;-5.32;100.00;96486.56;4934469;28;20039;-49
2024/01/22 00:02:40;;;;;;;3.40;1.85;;;0.10;57.40;;;-5.28;100.00;96489.69;4937178;28;20031;-52
2024/01/22 00:05:08;;;;;;;2.95;1.90;;;0.10;57.40;;;-5.24;100.00;96472.84;4945603;28;20023;-50
2024/01/22 00:07:35;;;;;;;3.25;1.88;;;0.10;57.50;;;-5.31;100.00;96461.41;4937269;28;20030;-49
2024/01/22 00:10:01;;;;;;;4.53;1.83;;;0.10;57.40;;;-5.33;100.00;96450.34;4941644;28;20037;-50
2024/01/22 00:12:27;;;;;;;3.58;1.98;;;0.00;57.40;;;-5.43;100.00;96433.00;4933950;28;20023;-49
2024/01/22 00:14:53;;;;;;;3.58;2.10;;;0.00;57.40;;;-5.42;100.00;96434.66;4936243;28;20385;-48
2024/01/22 00:17:19;;;;;;;2.20;1.52;;;0.00;57.50;;;-5.32;100.00;96433.81;4936758;28;20038;-48
2024/01/22 00:19:45;;;;;;;3.72;2.00;;;0.00;57.60;;;-5.20;100.00;96430.03;4942397;28;20092;-51
2024/01/22 00:22:10;;;;;;;4.38;2.45;;;0.00;57.80;;;-5.09;100.00;96426.41;4936396;29;20034;-49
2024/01/22 00:24:36;;;;;;;3.78;2.20;;;0.00;57.90;;;-5.05;100.00;96427.75;4943632;28;20484;-49
2024/01/22 00:27:02;;;;;;;4.03;2.00;;;0.10;58.00;;;-5.01;100.00;96416.94;4928404;29;20050;-54
2024/01/22 00:29:28;;;;;;;3.83;2.17;;;0.10;58.10;;;-4.98;100.00;96402.81;4942386;28;20041;-50
2024/01/22 00:31:54;;;;;;;4.35;2.05;;;0.20;58.10;;;-4.98;100.00;96401.03;4935111;29;20035;-48
2024/01/22 00:34:20;;;;;;;4.18;2.20;;;0.20;58.10;;;-4.98;100.00;96400.19;4936311;28;20048;-49
2024/01/22 00:36:45;;;;;;;2.35;2.08;;;0.30;58.10;;;-4.97;100.00;96402.66;4936954;28;20086;-50
2024/01/22 00:39:11;;;;;;;4.20;2.17;;;0.30;58.10;;;-4.90;100.00;96401.09;4930927;29;20098;-50
2024/01/22 00:41:37;;;;;;;3.20;2.15;;;0.30;58.20;;;-4.70;100.00;96399.19;4936768;29;20547;-53
2024/01/22 00:44:03;;;;;;;2.08;1.65;;;0.40;58.50;;;-4.57;100.00;96398.00;4941199;29;20046;-50
2024/01/22 00:46:29;;;;;;;3.58;2.25;;;0.50;58.70;;;-4.47;100.00;96402.13;4934226;28;20034;-50
2024/01/22 00:48:55;;;;;;;4.15;2.55;;;0.60;58.70;;;-4.38;100.00;96397.81;4939169;29;20078;-52
2024/01/22 00:51:21;;;;;;;2.75;2.00;;;0.70;58.70;;;-4.22;100.00;96399.72;4935357;29;20163;-51
2024/01/22 00:53:47;;;;;;;3.92;1.98;;;0.80;58.90;;;-4.07;100.00;96403.38;4944507;29;20027;-51
2024/01/22 00:56:13;;;;;;;4.70;2.30;;;0.90;59.00;;;-3.98;100.00;96410.28;4936731;29;20057;-50
2024/01/22 00:58:39;;;;;;;4.47;2.38;;;1.00;58.90;;;-3.90;100.00;96406.88;4943992;29;20122;-51
2024/01/22 01:01:05;;;;;;;2.28;1.70;;;1.10;58.90;;;-3.92;100.00;96395.81;4927690;28;20105;-50
2024/01/22 01:03:31;;;;;;;2.55;1.98;;;1.10;58.70;;;-4.02;100.00;96388.09;4940130;28;20470;-51
2024/01/22 01:05:57;;;;;;;3.45;2.10;;;1.20;58.40;;;-4.09;100.00;96394.09;4938594;28;20045;-53
2024/01/22 01:08:23;;;;;;;3.35;2.00;;;1.20;58.20;;;-4.14;100.00;96381.53;4937597;28;20022;-50
2024/01/22 01:10:49;;;;;;;2.55;1.80;;;1.20;58.10;;;-4.17;100.00;96387.03;4938025;28;20046;-48
2024/01/22 01:13:14;;;;;;;3.17;1.95;;;1.20;58.10;;;-4.18;100.00;96382.81;4932670;29;20015;-50
2024/01/22 01:15:40;;;;;;;3.03;1.88;;;1.20;58.00;;;-4.09;100.00;96381.09;4935739;29;20031;-52
2024/01/22 01:18:06;;;;;;;3.00;1.70;;;1.20;58.10;;;-4.05;100.00;96387.59;4944420;29;20120;-50
2024/01/22 01:20:33;;;;;;;2.88;1.85;;;1.20;58.30;;;-3.99;100.00;96380.00;4934868;28;20386;-48
2024/01/22 01:23:00;;;;;;;2.47;1.73;;;1.20;58.30;;;-3.91;100.00;96383.63;4924642;29;20114;-52
2024/01/22 01:25:26;;;;;;;3.15;2.03;;;1.30;58.40;;;-3.89;100.00;96379.06;4927825;29;20027;-50
2024/01/22 01:27:52;;;;;;;2.88;2.00;;;1.30;58.30;;;-3.88;100.00;96375.50;4928753;29;20027;-50
2024/01/22 01:30:17;;;;;;;4.40;2.05;;;1.30;58.30;;;-3.90;100.00;96374.84;4927546;29;20086;-50
2024/01/22 01:32:43;;;;;;;3.28;2.15;;;1.30;58.20;;;-3.90;100.00;96356.63;4931901;29;20394;-50
2024/01/22 01:35:09;;;;;;;4.45;1.92;;;1.30;58.20;;;-3.99;100.00;96340.13;4927546;29;20440;-50
2024/01/22 01:37:35;;;;;;;3.17;1.80;;;1.30;58.20;;;-3.91;100.00;96341.97;4933337;29;20039;-47
2024/01/22 01:40:01;;;;;;;2.53;1.90;;;1.30;58.20;;;-3.66;100.00;96348.09;4932846;29;20026;-49
2024/01/22 01:42:27;;;;;;;2.35;1.60;;;1.30;58.50;;;-3.36;100.00;96346.72;4931178;28;20121;-49
2024/01/22 01:44:54;;;;;;;1.90;1.35;;;1.50;58.80;;;-3.05;98.08;96344.34;4930893;29;20031;-50
2024/01/22 01:47:21;;;;;;;2.53;1.67;;;1.60;59.00;;;-2.94;96.66;96346.66;4920720;29;20027;-53
2024/01/22 01:49:47;;;;;;;3.42;1.80;;;1.70;59.00;;;-2.80;95.15;96342.56;4932193;29;20374;-53
2024/01/22 01:52:15;;;;;;;2.15;1.40;;;1.80;59.00;;;-2.72;94.74;96339.16;4934301;29;20490;-51
2024/01/22 01:54:47;;;;;;;3.00;1.55;;;1.90;58.80;;;-2.71;93.80;96336.38;4941794;28;20031;-52
2024/01/22 01:57:13;;;;;;;3.20;1.80;;;2.10;58.70;;;-2.72;93.66;96333.94;4933406;29;20035;-51
2024/01/22 01:59:43;;;;;;;2.80;1.30;;;2.10;58.50;;;-2.77;93.41;96329.22;4929063;29;20035;-52
2024/01/22 02:02:09;;;;;;;2.45;1.63;;;2.20;58.40;;;-2.83;93.74;96338.50;4930878;29;20062;-50
2024/01/22 02:04:36;;;;;;;1.65;1.15;;;2.20;58.20;;;-2.88;93.26;96330.34;4933342;29;20038;-51
2024/01/22 02:07:04;;;;;;;3.15;1.40;;;2.20;58.10;;;-2.86;93.07;96319.75;4933065;29;20027;-50
2024/01/22 02:09:52;;;;;;;1.42;1.27;;;2.30;58.10;;;-2.87;92.86;96331.97;4928798;29;20147;-50
2024/01/22 02:12:19;;;;;;;2.67;1.55;;;2.20;57.90;;;-2.90;92.99;96332.31;4931449;29;20114;-51
2024/01/22 02:14:47;;;;;;;1.95;1.23;;;2.30;57.90;;;-2.93;93.20;96332.63;4928662;29;20050;-51
2024/01/22 02:17:15;;;;;;;2.35;1.40;;;2.30;57.80;;;-2.95;93.10;96316.31;4928654;29;20083;-52
2024/01/22 02:19:41;;;;;;;2.60;1.50;;;2.30;57.80;;;-3.02;93.57;96308.34;4932917;29;20062;-53
2024/01/22 02:22:07;;;;;;;1.67;1.20;;;2.30;57.70;;;-3.05;94.06;96313.06;4927788;29;20113;-51
2024/01/22 02:24:33;;;;;;;3.22;1.33;;;2.20;57.60;;;-3.03;94.18;96309.31;4933281;29;20026;-51
2024/01/22 02:26:59;;;;;;;2.15;1.27;;;2.20;57.60;;;-3.03;94.17;96303.28;4925084;29;20027;-52
2024/01/22 02:29:25;;;;;;;2.53;1.58;;;2.20;57.60;;;-3.06;94.13;96286.19;4933672;28;20035;-53
2024/01/22 02:31:52;;;;;;;1.70;1.00;;;2.20;57.60;;;-3.09;93.91;96273.47;4934260;28;20039;-52
2024/01/22 02:34:19;;;;;;;1.77;1.40;;;2.20;57.60;;;-2.97;93.75;96276.56;4934266;28;20053;-51
2024/01/22 02:36:46;;;;;;;2.22;1.33;;;2.20;57.70;;;-2.89;93.00;96280.97;4933010;29;20051;-53
2024/01/22 02:39:13;;;;;;;2.08;1.40;;;2.20;57.70;;;-2.93;92.65;96264.84;4932003;29;20030;-55
2024/01/22 02:41:40;;;;;;;2.22;1.10;;;2.20;57.70;;;-3.01;92.95;96264.81;4931146;29;20027;-51
2024/01/22 02:44:06;;;;;;;2.35;1.42;;;2.20;57.60;;;-2.96;92.74;96264.34;4931850;28;20054;-56
2024/01/22 02:46:33;;;;;;;2.30;1.30;;;2.20;57.70;;;-2.83;91.49;96267.28;4930771;29;20030;-53
2024/01/22 02:48:59;;;;;;;1.75;1.25;;;2.20;57.70;;;-2.75;90.53;96267.28;4932089;29;20034;-49
2024/01/22 02:51:25;;;;;;;2.25;1.25;;;2.30;57.80;;;-2.73;89.96;96274.91;4923983;29;20036;-54
2024/01/22 02:53:53;;;;;;;2.08;1.33;;;2.30;57.70;;;-2.73;90.35;96288.78;4925946;29;20152;-55
2024/01/22 02:56:23;;;;;;;1.75;1.02;;;2.30;57.60;;;-2.81;89.91;96286.19;4928907;29;20027;-48
2024/01/22 02:58:49;;;;;;;2.55;1.45;;;2.30;57.50;;;-2.89;90.48;96278.34;4932176;29;20045;-52
2024/01/22 03:01:15;;;;;;;2.13;1.33;;;2.30;57.40;;;-3.02;92.41;96279.66;4931883;29;20027;-50
2024/01/22 03:03:41;;;;;;;2.08;1.20;;;2.30;57.30;;;-3.08;93.29;96274.28;4930784;29;20034;-50
2024/01/22 03:06:08;;;;;;;2.83;1.50;;;2.20;57.20;;;-3.21;92.67;96271.34;4930135;29;20481;-50
2024/01/22 03:08:35;;;;;;;2.33;1.30;;;2.20;57.20;;;-3.30;94.10;96265.31;4930588;29;20064;-52
2024/01/22 03:11:01;;;;;;;1.67;1.20;;;2.20;57.20;;;-3.36;93.28;96271.16;4930523;29;20106;-54
2024/01/22 03:13:27;;;;;;;2.42;1.38;;;2.10;57.20;;;-3.52;93.76;96264.13;4931806;29;20027;-55
2024/01/22 03:15:54;;;;;;;1.77;1.23;;;2.00;57.10;;;-3.51;95.32;96266.59;4927155;29;20026;-51
2024/01/22 03:18:20;;;;;;;0.98;0.88;;;2.00;57.70;;;-3.59;95.01;96263.16;4924972;29;20045;-51
2024/01/22 03:20:45;;;;;;;3.38;0.98;;;1.90;57.10;;;-3.70;95.31;96266.84;4931226;29;20490;-52
2024/01/22 03:23:11;;;;;;;2.45;1.27;;;1.90;57.20;;;-3.75;95.04;96254.31;4926322;29;20027;-55
2024/01/22 03:25:37;;;;;;;2.63;0.93;;;1.80;57.20;;;-3.71;95.32;96262.63;4930167;29;20027;-55
2024/01/22 03:28:03;;;;;;;1.67;1.20;;;1.70;57.20;;;-3.76;96.02;96257.91;4928313;29;20023;-53
2024/01/22 03:30:29;;;;;;;2.83;1.30;;;1.70;57.30;;;-3.82;95.89;96255.94;4940890;28;20035;-53
2024/01/22 03:32:56;;;;;;;2.67;1.40;;;1.60;57.30;;;-3.94;96.58;96261.59;4930969;28;20401;-49
2024/01/22 03:35:22;;;;;;;2.00;1.33;;;1.60;57.30;;;-4.02;95.68;96264.97;4934787;28;20415;-55
2024/01/22 03:37:48;;;;;;;1.50;1.10;;;1.50;57.20;;;-4.10;97.19;96255.34;4941944;28;20063;-46
2024/01/22 03:40:14;;;;;;;2.35;1.30;;;1.40;57.20;;;-4.12;99.08;96248.69;4930790;28;20448;-49
2024/01/22 03:42:40;;;;;;;3.75;1.15;;;1.40;57.30;;;-4.08;99.88;96253.41;4941183;28;20026;-47
2024/01/22 03:45:07;;;;;;;1.67;1.25;;;1.40;57.50;;;-4.08;99.49;96247.38;4935851;28;20524;-49
2024/01/22 03:47:33;;;;;;;1.75;1.10;;;1.30;57.60;;;-4.14;99.18;96242.81;4931849;28;20046;-46
2024/01/22 03:50:00;;;;;;;2.55;1.27;;;1.30;57.60;;;-4.26;98.46;96245.69;4935550;28;20031;-46
2024/01/22 03:52:26;;;;;;;2.47;1.20;;;1.20;57.60;;;-4.30;98.34;96241.75;4927532;28;20031;-46
2024/01/22 03:54:52;;;;;;;1.75;1.00;;;1.20;57.60;;;-4.29;98.04;96243.41;4933319;28;20033;-46
2024/01/22 03:57:18;;;;;;;1.80;1.10;;;1.10;57.60;;;-4.30;98.35;96239.16;4928025;28;20035;-46
2024/01/22 03:59:46;;;;;;;1.73;1.00;;;1.10;57.60;;;-4.35;98.79;96228.44;4928343;28;20029;-48
2024/01/22 04:02:12;;;;;;;2.10;1.17;;;1.10;57.80;;;-4.37;99.08;96227.75;4928893;28;20031;-49
2024/01/22 04:04:38;;;;;;;1.40;1.30;;;1.10;57.80;;;-4.46;100.00;96228.69;4941964;28;20077;-49
2024/01/22 04:07:04;;;;;;;1.30;1.00;;;1.00;57.80;;;-4.58;99.17;96216.91;4923223;28;20039;-47
2024/01/22 04:09:29;;;;;;;1.90;1.20;;;1.00;57.80;;;-4.59;100.00;96223.09;4937633;28;20033;-47
2024/01/22 04:11:55;;;;;;;2.45;1.23;;;0.90;57.70;;;-4.56;100.00;96230.59;4918527;28;20038;-48
2024/01/22 04:14:21;;;;;;;1.65;1.20;;;0.90;57.80;;;-4.56;100.00;96228.81;4933919;28;20106;-47
2024/01/22 04:16:47;;;;;;;1.92;1.10;;;0.90;57.90;;;-4.62;99.44;96234.63;4936848;28;20038;-46
2024/01/22 04:19:13;;;;;;;1.77;1.10;;;0.80;57.90;;;-4.67;100.00;96234.25;4927149;28;20064;-46
2024/01/22 04:21:48;;;;;;;2.25;1.17;;;0.80;57.90;;;-4.74;100.00;96235.84;4928389;29;20043;-47
2024/01/22 04:24:14;;;;;;;1.35;1.02;;;0.80;58.00;;;-4.75;100.00;96231.63;4925545;29;20092;-49
2024/01/22 04:26:40;;;;;;;1.80;1.13;;;0.70;58.00;;;-4.70;100.00;96227.59;4932070;28;20031;-48
2024/01/22 04:29:06;;;;;;;1.30;1.10;;;0.70;58.10;;;-4.64;100.00;96236.53;4927231;29;20051;-46
2024/01/22 04:31:31;;;;;;;1.35;1.00;;;0.70;58.20;;;-4.57;100.00;96228.97;4939557;28;20314;-46
2024/01/22 04:33:57;;;;;;;2.25;1.10;;;0.70;58.20;;;-4.51;100.00;96233.53;4918309;29;20047;-47
2024/01/22 04:36:23;;;;;;;1.10;1.00;;;0.70;58.40;;;-4.50;99.48;96228.19;4927229;28;20499;-46
2024/01/22 04:38:51;;;;;;;2.53;1.20;;;0.70;58.40;;;-4.42;100.00;96230.00;4924231;29;20038;-47
2024/01/22 04:41:17;;;;;;;2.55;1.40;;;0.70;58.40;;;-4.47;99.03;96225.28;4930908;29;20085;-47
2024/01/22 04:43:43;;;;;;;2.67;1.27;;;0.80;58.40;;;-4.47;100.00;96225.28;4931940;29;20454;-48
2024/01/22 04:46:09;;;;;;;2.58;1.23;;;0.80;58.40;;;-4.38;100.00;96230.53;4923541;29;20038;-46
2024/01/22 04:48:34;;;;;;;2.60;1.60;;;0.80;58.50;;;-4.37;99.59;96234.75;4928359;29;20035;-51
2024/01/22 04:51:00;;;;;;;1.98;1.35;;;0.80;58.40;;;-4.35;100.00;96232.81;4918200;29;20385;-47
2024/01/22 04:53:26;;;;;;;1.35;1.00;;;0.90;58.50;;;-4.37;100.00;96237.34;4926572;29;20030;-45
2024/01/22 04:55:52;;;;;;;2.58;1.33;;;0.90;58.50;;;-4.35;100.00;96232.81;4925424;29;20054;-45
2024/01/22 04:58:18;;;;;;;2.20;1.40;;;0.90;58.50;;;-4.33;99.70;96228.25;4932251;29;20077;-45
2024/01/22 05:00:44;;;;;;;2.35;1.33;;;0.90;58.50;;;-4.36;100.00;96216.38;4923340;29;20119;-45
2024/01/22 05:03:09;;;;;;;3.03;1.38;;;0.90;58.50;;;-4.35;100.00;96225.00;4929157;29;20061;-46
2024/01/22 05:05:36;;;;;;;3.75;1.38;;;0.90;58.50;;;-4.36;100.00;96225.97;4930754;29;20050;-45
2024/01/22 05:08:03;;;;;;;1.88;1.20;;;0.90;58.50;;;-4.33;100.00;96221.25;4928380;29;20378;-46
2024/01/22 05:10:29;;;;;;;2.05;1.50;;;0.90;58.50;;;-4.30;100.00;96212.34;4938693;28;20374;-47
2024/01/22 05:12:54;;;;;;;2.78;1.60;;;0.90;58.60;;;-4.36;100.00;96207.75;4930294;28;20351;-49
2024/01/22 05:15:20;;;;;;;1.77;1.52;;;0.90;58.60;;;-4.18;100.00;96211.09;4936429;28;20027;-45
2024/01/22 05:17:46;;;;;;;3.17;1.50;;;1.00;58.70;;;-4.10;100.00;96223.31;4934104;28;20023;-48
2024/01/22 05:20:12;;;;;;;4.57;1.85;;;1.00;58.80;;;-4.03;100.00;96230.31;4932738;28;20043;-45
2024/01/22 05:22:38;;;;;;;2.83;1.60;;;1.10;59.00;;;-3.96;100.00;96233.09;4937072;28;20022;-45
2024/01/22 05:25:05;;;;;;;3.17;1.88;;;1.10;59.10;;;-3.87;100.00;96229.56;4929093;28;20474;-45
2024/01/22 05:27:31;;;;;;;2.92;1.58;;;1.20;59.20;;;-3.75;100.00;96230.91;4933533;28;20113;-47
2024/01/22 05:29:57;;;;;;;2.28;1.80;;;1.30;59.30;;;-3.72;100.00;96221.94;4926473;28;20156;-47
2024/01/22 05:32:23;;;;;;;6.40;1.77;;;1.40;59.20;;;-3.82;100.00;96222.09;4936357;28;20502;-45
2024/01/22 05:34:49;;;;;;;3.72;1.83;;;1.50;59.10;;;-3.79;100.00;96216.56;4926784;28;20487;-49
2024/01/22 05:37:15;;;;;;;3.95;1.70;;;1.60;59.00;;;-3.67;100.00;96209.25;4934447;28;20073;-48
2024/01/22 05:39:41;;;;;;;3.03;1.90;;;1.60;59.00;;;-3.56;100.00;96218.56;4916351;28;20110;-46
2024/01/22 05:42:07;;;;;;;3.85;1.88;;;1.60;59.00;;;-3.56;100.00;96211.56;4935055;29;20030;-49
2024/01/22 05:44:33;;;;;;;3.30;2.10;;;1.70;59.00;;;-3.49;100.00;96212.53;4930532;28;20030;-45
2024/01/22 05:46:59;;;;;;;3.97;1.90;;;1.70;59.00;;;-3.46;100.00;96216.59;4930412;29;20650;-47
2024/01/22 05:49:24;;;;;;;4.20;1.50;;;1.80;59.00;;;-3.44;100.00;96206.84;4929466;29;20148;-46
2024/01/22 05:51:50;;;;;;;1.88;1.30;;;1.90;59.00;;;-3.33;100.00;96210.91;4931833;29;20035;-46
2024/01/22 05:54:16;;;;;;;2.75;1.75;;;1.90;59.00;;;-3.24;100.00;96204.72;4932004;29;20051;-48
2024/01/22 05:56:42;;;;;;;4.50;2.05;;;2.00;59.10;;;-3.15;100.00;96219.38;4930994;29;20039;-48
2024/01/22 05:59:08;;;;;;;1.38;1.00;;;2.10;59.20;;;-2.99;99.76;96222.97;4930504;28;20028;-45
2024/01/22 06:01:34;;;;;;;3.25;1.50;;;2.10;59.20;;;-2.86;99.35;96215.44;4932035;28;20038;-48
2024/01/22 06:04:00;;;;;;;2.58;1.50;;;2.30;59.30;;;-2.76;99.40;96203.03;4925956;28;20106;-45
2024/01/22 06:06:26;;;;;;;2.28;1.35;;;2.40;59.30;;;-2.70;99.58;96204.97;4931659;29;20537;-46
2024/01/22 06:08:52;;;;;;;2.58;1.40;;;2.50;59.20;;;-2.68;99.34;96205.63;4930554;29;20030;-45
2024/01/22 06:11:19;;;;;;;3.25;1.48;;;2.50;59.00;;;-2.63;98.90;96202.56;4925052;29;20098;-48
2024/01/22 06:13:46;;;;;;;3.50;1.40;;;2.60;59.00;;;-2.61;98.87;96201.38;4929951;29;20090;-55
2024/01/22 06:16:14;;;;;;;2.28;1.70;;;2.70;58.90;;;-2.56;98.79;96196.47;4927883;29;20114;-50
2024/01/22 06:18:42;;;;;;;2.67;1.77;;;2.70;58.90;;;-2.50;99.23;96189.78;4929589;29;20071;-47
2024/01/22 06:21:08;;;;;;;2.20;0.93;;;2.80;58.90;;;-2.46;97.90;96190.25;4932483;29;20524;-48
2024/01/22 06:23:35;;;;;;;2.83;1.85;;;2.80;58.80;;;-2.41;97.86;96203.63;4928887;29;20027;-45
2024/01/22 06:26:01;;;;;;;5.07;2.38;;;2.90;59.00;;;-2.31;98.12;96206.03;4930784;29;20109;-45
2024/01/22 06:28:31;;;;;;;4.85;2.45;;;2.90;58.80;;;-2.27;97.45;96195.06;4931123;29;20552;-50
2024/01/22 06:30:58;;;;;;;4.72;2.60;;;3.00;58.80;;;-2.23;96.39;96192.94;4935391;28;20034;-46
2024/01/22 06:33:24;;;;;;;7.57;3.35;;;3.00;58.80;;;-2.20;95.23;96192.59;4931329;29;20439;-47
2024/01/22 06:35:50;;;;;;;7.65;2.80;;;3.10;58.70;;;-2.23;94.74;96204.19;4931505;29;20050;-47
2024/01/22 06:38:17;;;;;;;6.53;2.72;;;3.10;58.70;;;-2.12;94.51;96205.63;4922907;29;20542;-49
2024/01/22 06:40:47;;;;;;;5.95;2.20;;;3.10;58.60;;;-2.01;91.98;96207.03;4927270;29;20123;-47
2024/01/22 06:43:14;;;;;;;5.00;2.35;;;3.20;58.70;;;-1.88;92.07;96217.72;4927300;28;20015;-45
2024/01/22 06:45:41;;;;;;;4.47;2.20;;;3.20;58.60;;;-1.76;92.35;96210.34;4931279;29;20035;-46
2024/01/22 06:48:07;;;;;;;6.78;2.60;;;3.30;58.70;;;-1.71;92.59;96194.97;4925902;29;20389;-45
2024/01/22 06:50:33;;;;;;;5.47;2.30;;;3.40;58.60;;;-1.66;91.75;96203.91;4931307;29;20034;-47
2024/01/22 06:52:59;;;;;;;3.70;2.28;;;3.50;58.60;;;-1.59;90.82;96196.19;4932642;29;20023;-45
2024/01/22 06:55:25;;;;;;;4.15;2.42;;;3.50;58.50;;;-1.52;91.11;96189.28;4923701;29;20035;-45
2024/01/22 06:57:51;;;;;;;6.10;2.45;;;3.60;58.50;;;-1.47;91.64;96186.16;4920095;29;20043;-51
2024/01/22 07:00:19;;;;;;;3.88;2.40;;;3.70;58.50;;;-1.40;93.28;96190.50;4922761;29;20117;-47
2024/01/22 07:02:48;;;;;;;5.10;2.25;;;3.80;58.50;;;-1.34;91.34;96185.56;4928371;28;20494;-47
2024/01/22 07:05:15;;;;;;;3.13;1.90;;;3.80;58.40;;;-1.19;90.14;96202.94;4925406;29;20050;-47
2024/01/22 07:07:42;;;;;;;3.22;2.20;;;3.90;58.40;;;-1.06;88.82;96198.91;4929078;29;20031;-45
2024/01/22 07:10:10;;;;;;;4.13;2.05;;;4.00;58.40;;;-0.96;88.64;96196.84;4921508;28;20035;-49
2024/01/22 07:12:40;;;;;;;5.18;2.45;;;4.10;58.30;;;-0.93;89.51;96204.34;4927139;28;20038;-45
2024/01/22 07:15:12;;;;;;;3.90;1.80;;;4.20;58.20;;;-0.94;88.94;96198.31;4925564;28;20453;-46
2024/01/22 07:17:40;;;;;;;7.82;2.35;;;4.20;58.10;;;-0.84;87.36;96208.50;4926848;29;20508;-45
2024/01/22 07:20:08;;;;;;;6.28;2.22;;;4.30;58.10;;;-0.75;86.63;96214.50;4926959;29;20030;-46
2024/01/22 07:22:36;;;;;;;4.80;4.22;;;4.30;58.00;;;-0.70;85.41;96210.31;4926189;29;20041;-47
2024/01/22 07:25:03;;;;;;;5.25;2.63;;;4.40;57.90;;;-0.59;86.39;96216.94;4926718;29;20118;-45
2024/01/22 07:27:29;;;;;;;4.40;3.30;;;4.40;57.80;;;-0.52;85.84;96224.88;4927963;29;20846;-47
2024/01/22 07:29:56;;;;;;;6.28;2.22;;;4.50;57.80;;;-0.55;87.12;96226.03;4930908;29;20027;-46
2024/01/22 07:32:22;;;;;;;2.33;1.77;;;4.60;57.80;;;-0.56;87.96;96239.31;4929852;28;20386;-47
2024/01/22 07:34:48;;;;;;;2.60;1.70;;;4.60;57.60;;;-0.53;87.00;96238.97;4930206;29;20054;-49
2024/01/22 07:37:13;;;;;;;2.15;1.45;;;4.70;57.60;;;-0.48;84.26;96242.66;4927281;29;20995;-45
2024/01/22 07:39:39;;;;;;;2.28;1.30;;;4.70;57.50;;;-0.36;83.66;96252.69;4931447;29;20089;-49
2024/01/22 07:42:05;;;;;;;2.97;1.70;;;4.80;57.40;;;-0.31;83.06;96250.38;4932366;29;20070;-47
2024/01/22 07:44:31;;;;;;;2.92;1.95;;;4.80;57.20;;;-0.25;83.84;96252.25;4930197;28;20504;-49
2024/01/22 07:46:58;;;;;;;4.35;2.63;;;4.90;57.10;;;-0.25;84.45;96253.06;4928028;29;20494;-48
2024/01/22 07:49:24;;;;;;;3.28;1.77;;;5.00;57.10;;;-0.24;82.56;96246.81;4929279;29;20050;-46
2024/01/22 07:51:50;;;;;;;3.38;2.30;;;5.00;57.00;;;-0.06;81.85;96253.53;4927362;29;20054;-46
2024/01/22 07:54:16;;;;;;;2.20;1.13;;;5.10;56.90;;;0.15;78.79;96252.75;4929159;29;20110;-46
2024/01/22 07:56:41;;;;;;;2.92;1.67;;;5.20;56.80;;;0.41;78.42;96237.38;4923025;29;20483;-48
2024/01/22 07:59:07;;;;;;;2.30;1.42;;;5.40;56.70;;;0.59;78.09;96242.16;4925996;29;20024;-46
2024/01/22 08:01:33;;;;;;;1.45;1.10;;;5.50;56.70;;;0.84;76.52;96249.69;4938349;28;20133;-50
2024/01/22 08:04:02;;;;;;;1.40;1.17;;;5.70;56.60;;;1.00;75.16;96243.38;4927555;29;20098;-53
2024/01/22 08:06:29;;;;;;;1.67;1.10;;;5.90;56.50;;;1.18;75.13;96253.44;4922781;29;20027;-46
2024/01/22 08:08:56;;;;;;;1.75;1.00;;;6.10;56.30;;;1.30;74.95;96249.28;4925810;29;20041;-50
2024/01/22 08:11:22;;;;;;;2.85;1.50;;;6.20;56.10;;;1.37;74.95;96248.34;4936068;28;20125;-50
2024/01/22 08:13:48;;;;;;;3.25;1.38;;;6.40;55.90;;;1.46;75.12;96246.38;4929842;28;20110;-55
2024/01/22 08:16:14;;;;;;;2.13;1.10;;;6.50;55.70;;;1.56;73.89;96261.81;4932777;28;20027;-46
2024/01/22 08:18:39;;;;;;;1.98;1.42;;;6.60;55.50;;;1.67;71.98;96277.03;4940412;28;20031;-46
2024/01/22 08:21:05;;;;;;;1.88;1.20;;;6.70;55.10;;;1.80;72.52;96260.56;4935632;28;20503;-48
2024/01/22 08:23:31;;;;;;;2.28;1.30;;;6.90;55.00;;;1.89;72.96;96279.63;4940362;28;20091;-47
2024/01/22 08:25:57;;;;;;;2.85;1.60;;;7.00;54.80;;;1.96;72.28;96267.31;4931023;29;20031;-46
2024/01/22 08:28:24;;;;;;;3.60;1.23;;;7.10;54.60;;;1.99;71.86;96270.38;4940474;28;20030;-46
2024/01/22 08:30:50;;;;;;;2.97;1.45;;;7.20;55.10;;;2.09;71.94;96268.19;4931049;29;20041;-48
2024/01/22 08:33:16;;;;;;;2.15;1.50;;;7.30;54.30;;;2.19;71.49;96267.03;4935652;28;20452;-46
2024/01/22 08:35:42;;;;;;;1.60;1.35;;;7.40;54.10;;;2.26;71.66;96270.53;4934172;29;20580;-49
2024/01/22 08:38:08;;;;;;;3.25;1.65;;;7.50;53.90;;;2.35;69.95;96256.19;4931476;29;20031;-46
2024/01/22 08:40:34;;;;;;;2.38;1.63;;;7.60;53.80;;;2.47;71.19;96254.59;4930322;29;20030;-46
2024/01/22 08:42:59;;;;;;;3.05;1.60;;;7.70;53.70;;;2.50;70.98;96254.22;4932217;29;20098;-46
2024/01/22 08:45:25;;;;;;;2.10;1.48;;;7.80;53.60;;;2.54;70.67;96255.47;4939952;28;20081;-46
2024/01/22 08:47:52;;;;;;;2.38;1.52;;;7.80;53.40;;;2.59;70.66;96246.97;4929813;28;20035;-46
2024/01/22 08:50:20;;;;;;;3.17;1.33;;;7.90;53.20;;;2.67;70.86;96235.47;4943145;28;20027;-46
2024/01/22 08:52:49;;;;;;;2.70;1.42;;;8.00;53.20;;;2.74;70.73;96238.91;4928697;28;20054;-51
2024/01/22 08:55:18;;;;;;;1.80;1.40;;;8.10;53.20;;;2.85;70.91;96216.47;4940132;28;20037;-55
2024/01/22 08:57:44;;;;;;;2.63;1.50;;;8.20;53.10;;;2.91;70.41;96213.81;4933416;28;20421;-47
2024/01/22 09:00:12;;;;;;;1.33;1.00;;;8.30;52.90;;;3.03;71.19;96215.88;4933839;28;20031;-49
2024/01/22 09:02:39;;;;;;;2.83;1.27;;;8.40;52.80;;;3.06;70.40;96231.28;4940950;28;20117;-51
2024/01/22 09:05:10;;;;;;;2.60;1.58;;;8.50;52.60;;;3.16;70.11;96226.41;4934505;28;20039;-52
2024/01/22 09:07:37;;;;;;;2.78;1.27;;;8.70;52.40;;;3.32;70.37;96212.88;4944462;28;20037;-47
2024/01/22 09:10:08;;;;;;;3.10;2.00;;;8.80;53.00;;;3.37;70.49;96199.88;4940592;28;20106;-50
2024/01/22 09:12:35;;;;;;;1.63;1.25;;;8.90;52.40;;;3.44;69.29;96186.69;4940942;28;20040;-49
2024/01/22 09:15:04;;;;;;;1.98;1.40;;;9.00;52.40;;;3.50;71.18;96180.59;4937332;28;20023;-51
2024/01/22 09:17:30;;;;;;;1.92;1.10;;;9.10;52.40;;;3.51;71.42;96163.81;4937380;28;20039;-53
2024/01/22 09:19:58;;;;;;;1.63;1.30;;;9.10;52.30;;;3.52;71.13;96169.88;4943007;28;20026;-52
2024/01/22 09:22:26;;;;;;;2.28;1.17;;;9.20;52.20;;;3.55;70.42;96177.38;4937689;28;20053;-47
2024/01/22 09:24:52;;;;;;;1.33;1.00;;;9.30;52.10;;;3.62;71.53;96171.06;4948691;28;20047;-50
2024/01/22 09:27:18;;;;;;;2.63;1.05;;;9.40;52.00;;;3.68;70.57;96182.59;4930503;28;20101;-50
2024/01/22 09:29:44;;;;;;;1.67;1.05;;;9.40;51.80;;;3.67;70.23;96181.81;4938033;28;20184;-50
2024/01/22 09:32:10;;;;;;;1.30;0.90;;;9.50;51.60;;;3.76;67.37;96176.28;4932431;28;20038;-53
2024/01/22 09:34:39;;;;;;;1.85;1.10;;;9.50;51.30;;;3.89;67.55;96171.81;4949518;28;20493;-49
2024/01/22 09:37:06;;;;;;;1.48;1.13;;;9.70;51.30;;;4.01;66.72;96155.34;4938286;28;20061;-51
2024/01/22 09:39:33;;;;;;;1.63;0.88;;;9.80;51.20;;;4.09;67.67;96160.38;4927003;28;20490;-50
2024/01/22 09:42:00;;;;;;;1.63;1.10;;;9.90;51.10;;;4.22;66.65;96139.22;4933459;28;20031;-52
2024/01/22 09:44:27;;;;;;;1.70;1.10;;;10.10;51.60;;;4.35;67.06;96136.50;4939455;28;20094;-48
2024/01/22 09:46:53;;;;;;;1.70;1.30;;;10.30;50.80;;;4.54;66.33;96129.50;4935436;28;20076;-48
2024/01/22 09:49:21;;;;;;;2.97;1.05;;;10.60;50.60;;;4.82;63.49;96130.94;4973298;23;20133;-55
2024/01/22 09:51:46;;;;;;;2.10;1.27;;;11.10;50.20;;;5.17;62.05;96120.72;4964948;28;20061;-51
2024/01/22 09:54:19;;;;;;;1.98;1.10;;;11.40;49.80;;;5.28;63.04;96119.16;4953865;28;20449;-55
2024/01/22 09:56:54;;;;;;;1.17;0.90;;;11.70;49.50;;;5.26;60.12;96102.72;4959180;28;20035;-51
2024/01/22 09:59:28;;;;;;;1.38;0.90;;;11.90;49.10;;;5.29;59.27;96100.44;4946236;28;20027;-53
2024/01/22 10:01:55;;;;;;;1.23;0.90;;;12.00;48.70;;;5.36;57.32;96102.22;4933343;28;20078;-53
2024/01/22 10:04:26;;;;;;;1.80;0.90;;;12.00;48.00;;;5.49;57.26;96091.53;4940064;28;20022;-52
2024/01/22 10:06:53;;;;;;;3.08;0.80;;;12.00;47.80;;;5.50;57.81;96093.94;4932856;28;20023;-51
2024/01/22 10:09:19;;;;;;;1.05;0.77;;;12.10;47.60;;;5.61;55.55;96086.31;4927685;28;20115;-55
2024/01/22 10:11:47;;;;;;;1.25;1.00;;;12.20;47.20;;;5.66;56.56;96078.53;4940821;28;20031;-51
2024/01/22 10:14:13;;;;;;;1.90;1.13;;;12.30;46.90;;;5.66;56.87;96089.09;4941013;28;20038;-53
2024/01/22 10:16:39;;;;;;;2.88;1.20;;;12.40;46.60;;;5.60;55.49;96082.84;4937995;28;20566;-53
2024/01/22 10:19:09;;;;;;;2.10;1.08;;;12.40;46.00;;;5.75;55.06;96067.44;4939694;28;20123;-53
2024/01/22 10:21:38;;;;;;;1.48;0.90;;;12.40;45.60;;;5.85;55.08;96060.81;4933043;28;20033;-52